sensor_id;sensor_type;location;lat;lon;timestamp;P1;durP1;ratioP1;P2;durP2;ratioP2
75129;SDS011;63703;44.716;37.846;2022-11-18T00:01:13;37.47;;;16.08;;
75129;SDS011;63703;44.716;37.846;2022-11-18T00:03:44;38.50;;;15.10;;
75129;SDS011;63703;44.716;37.846;2022-11-18T00:06:14;55.55;;;16.55;;
75129;SDS011;63703;44.716;37.846;2022-11-18T00:08:42;49.33;;;19.90;;
75129;SDS011;63703;44.716;37.846;2022-11-18T00:11:10;52.47;;;16.70;;
75129;SDS011;63703;44.716;37.846;2022-11-18T00:13:37;44.65;;;14.15;;
75129;SDS011;63703;44.716;37.846;2022-11-18T00:16:22;39.90;;;10.77;;
75129;SDS011;63703;44.716;37.846;2022-11-18T00:18:48;51.42;;;12.75;;
75129;SDS011;63703;44.716;37.846;2022-11-18T00:21:14;78.90;;;13.63;;
75129;SDS011;63703;44.716;37.846;2022-11-18T00:23:41;96.30;;;14.80;;
75129;SDS011;63703;44.716;37.846;2022-11-18T00:26:11;55.90;;;14.48;;
75129;SDS011;63703;44.716;37.846;2022-11-18T00:28:38;50.67;;;11.63;;
75129;SDS011;63703;44.716;37.846;2022-11-18T00:31:14;24.95;;;7.50;;
75129;SDS011;63703;44.716;37.846;2022-11-18T00:33:40;42.78;;;7.68;;
75129;SDS011;63703;44.716;37.846;2022-11-18T00:36:07;25.77;;;6.55;;
75129;SDS011;63703;44.716;37.846;2022-11-18T00:38:35;33.08;;;7.60;;
75129;SDS011;63703;44.716;37.846;2022-11-18T00:41:03;45.38;;;8.50;;
75129;SDS011;63703;44.716;37.846;2022-11-18T00:43:39;26.60;;;6.15;;
75129;SDS011;63703;44.716;37.846;2022-11-18T00:46:07;25.30;;;6.05;;
75129;SDS011;63703;44.716;37.846;2022-11-18T00:48:34;32.58;;;6.35;;
75129;SDS011;63703;44.716;37.846;2022-11-18T00:51:12;32.58;;;6.22;;
75129;SDS011;63703;44.716;37.846;2022-11-18T00:53:40;20.05;;;5.00;;
75129;SDS011;63703;44.716;37.846;2022-11-18T00:56:06;25.80;;;4.28;;
75129;SDS011;63703;44.716;37.846;2022-11-18T00:58:33;18.38;;;3.78;;
75129;SDS011;63703;44.716;37.846;2022-11-18T01:00:59;24.05;;;3.10;;
75129;SDS011;63703;44.716;37.846;2022-11-18T01:03:25;18.23;;;4.50;;
75129;SDS011;63703;44.716;37.846;2022-11-18T01:05:52;21.92;;;3.45;;
75129;SDS011;63703;44.716;37.846;2022-11-18T01:08:18;19.30;;;3.78;;
75129;SDS011;63703;44.716;37.846;2022-11-18T01:10:44;26.60;;;4.95;;
75129;SDS011;63703;44.716;37.846;2022-11-18T01:13:13;20.10;;;4.55;;
75129;SDS011;63703;44.716;37.846;2022-11-18T01:15:46;25.55;;;5.38;;
75129;SDS011;63703;44.716;37.846;2022-11-18T01:18:17;18.38;;;5.03;;
75129;SDS011;63703;44.716;37.846;2022-11-18T01:20:45;28.10;;;6.03;;
75129;SDS011;63703;44.716;37.846;2022-11-18T01:23:12;20.75;;;5.93;;
75129;SDS011;63703;44.716;37.846;2022-11-18T01:25:39;25.60;;;6.18;;
75129;SDS011;63703;44.716;37.846;2022-11-18T01:28:06;27.17;;;6.07;;
75129;SDS011;63703;44.716;37.846;2022-11-18T01:30:35;20.40;;;5.68;;
75129;SDS011;63703;44.716;37.846;2022-11-18T01:33:04;29.20;;;7.65;;
75129;SDS011;63703;44.716;37.846;2022-11-18T01:35:37;23.55;;;6.20;;
75129;SDS011;63703;44.716;37.846;2022-11-18T01:38:04;27.02;;;8.20;;
75129;SDS011;63703;44.716;37.846;2022-11-18T01:40:31;22.65;;;5.82;;
75129;SDS011;63703;44.716;37.846;2022-11-18T01:42:58;27.20;;;5.60;;
75129;SDS011;63703;44.716;37.846;2022-11-18T01:50:40;21.65;;;6.53;;
75129;SDS011;63703;44.716;37.846;2022-11-18T01:53:12;15.45;;;4.88;;
75129;SDS011;63703;44.716;37.846;2022-11-18T01:55:44;22.85;;;6.20;;
75129;SDS011;63703;44.716;37.846;2022-11-18T01:58:15;27.48;;;5.90;;
75129;SDS011;63703;44.716;37.846;2022-11-18T02:00:50;21.77;;;5.63;;
75129;SDS011;63703;44.716;37.846;2022-11-18T02:03:16;22.25;;;4.97;;
75129;SDS011;63703;44.716;37.846;2022-11-18T02:05:43;18.00;;;4.65;;
75129;SDS011;63703;44.716;37.846;2022-11-18T02:08:11;20.80;;;4.45;;
75129;SDS011;63703;44.716;37.846;2022-11-18T02:10:38;16.00;;;5.68;;
75129;SDS011;63703;44.716;37.846;2022-11-18T02:13:04;19.10;;;4.43;;
75129;SDS011;63703;44.716;37.846;2022-11-18T02:18:59;14.88;;;5.60;;
75129;SDS011;63703;44.716;37.846;2022-11-18T02:32:24;19.83;;;4.90;;
75129;SDS011;63703;44.716;37.846;2022-11-18T02:35:09;16.00;;;5.47;;
75129;SDS011;63703;44.716;37.846;2022-11-18T02:38:01;23.40;;;6.07;;
75129;SDS011;63703;44.716;37.846;2022-11-18T02:43:52;23.95;;;6.35;;
75129;SDS011;63703;44.716;37.846;2022-11-18T02:46:24;23.25;;;5.43;;
75129;SDS011;63703;44.716;37.846;2022-11-18T02:48:54;16.00;;;4.45;;
75129;SDS011;63703;44.716;37.846;2022-11-18T02:51:22;14.80;;;5.40;;
75129;SDS011;63703;44.716;37.846;2022-11-18T02:53:50;16.35;;;4.63;;
75129;SDS011;63703;44.716;37.846;2022-11-18T02:58:48;13.73;;;3.40;;
75129;SDS011;63703;44.716;37.846;2022-11-18T03:01:22;17.55;;;4.80;;
75129;SDS011;63703;44.716;37.846;2022-11-18T03:03:51;17.40;;;4.20;;
75129;SDS011;63703;44.716;37.846;2022-11-18T03:06:28;12.00;;;3.95;;
75129;SDS011;63703;44.716;37.846;2022-11-18T03:09:11;16.25;;;3.13;;
75129;SDS011;63703;44.716;37.846;2022-11-18T03:20:32;13.27;;;3.72;;
75129;SDS011;63703;44.716;37.846;2022-11-18T03:25:33;13.57;;;4.05;;
75129;SDS011;63703;44.716;37.846;2022-11-18T03:28:08;14.63;;;5.05;;
75129;SDS011;63703;44.716;37.846;2022-11-18T03:33:31;12.35;;;3.03;;
75129;SDS011;63703;44.716;37.846;2022-11-18T03:36:03;12.18;;;3.45;;
75129;SDS011;63703;44.716;37.846;2022-11-18T03:38:33;12.30;;;4.35;;
75129;SDS011;63703;44.716;37.846;2022-11-18T03:41:05;11.38;;;4.10;;
75129;SDS011;63703;44.716;37.846;2022-11-18T03:46:07;13.15;;;3.13;;
75129;SDS011;63703;44.716;37.846;2022-11-18T03:48:49;15.88;;;3.75;;
75129;SDS011;63703;44.716;37.846;2022-11-18T03:51:29;12.10;;;3.55;;
75129;SDS011;63703;44.716;37.846;2022-11-18T03:54:02;13.80;;;3.85;;
75129;SDS011;63703;44.716;37.846;2022-11-18T03:56:39;11.32;;;2.97;;
75129;SDS011;63703;44.716;37.846;2022-11-18T03:59:14;22.88;;;3.38;;
75129;SDS011;63703;44.716;37.846;2022-11-18T04:04:14;12.60;;;2.90;;
75129;SDS011;63703;44.716;37.846;2022-11-18T04:09:10;8.32;;;3.00;;
75129;SDS011;63703;44.716;37.846;2022-11-18T04:12:05;18.05;;;3.80;;
75129;SDS011;63703;44.716;37.846;2022-11-18T04:14:36;15.10;;;4.68;;
75129;SDS011;63703;44.716;37.846;2022-11-18T04:17:13;9.13;;;3.30;;
75129;SDS011;63703;44.716;37.846;2022-11-18T04:19:45;11.13;;;4.00;;
75129;SDS011;63703;44.716;37.846;2022-11-18T04:22:11;9.30;;;3.38;;
75129;SDS011;63703;44.716;37.846;2022-11-18T04:24:38;9.02;;;3.97;;
75129;SDS011;63703;44.716;37.846;2022-11-18T04:27:04;10.48;;;3.92;;
75129;SDS011;63703;44.716;37.846;2022-11-18T04:29:31;15.20;;;4.63;;
75129;SDS011;63703;44.716;37.846;2022-11-18T04:31:58;15.07;;;4.00;;
75129;SDS011;63703;44.716;37.846;2022-11-18T04:34:24;11.88;;;3.20;;
75129;SDS011;63703;44.716;37.846;2022-11-18T04:36:51;12.43;;;3.28;;
75129;SDS011;63703;44.716;37.846;2022-11-18T04:39:17;13.40;;;3.92;;
75129;SDS011;63703;44.716;37.846;2022-11-18T04:41:43;15.25;;;3.72;;
75129;SDS011;63703;44.716;37.846;2022-11-18T04:44:22;14.25;;;4.78;;
75129;SDS011;63703;44.716;37.846;2022-11-18T04:46:53;16.13;;;6.72;;
75129;SDS011;63703;44.716;37.846;2022-11-18T04:49:21;13.30;;;4.53;;
75129;SDS011;63703;44.716;37.846;2022-11-18T04:51:47;14.65;;;3.85;;
75129;SDS011;63703;44.716;37.846;2022-11-18T04:54:13;13.90;;;6.15;;
75129;SDS011;63703;44.716;37.846;2022-11-18T04:56:40;9.25;;;3.80;;
75129;SDS011;63703;44.716;37.846;2022-11-18T04:59:07;11.05;;;3.80;;
75129;SDS011;63703;44.716;37.846;2022-11-18T05:01:33;14.98;;;4.78;;
75129;SDS011;63703;44.716;37.846;2022-11-18T05:03:59;15.02;;;4.00;;
75129;SDS011;63703;44.716;37.846;2022-11-18T05:06:26;13.63;;;4.45;;
75129;SDS011;63703;44.716;37.846;2022-11-18T05:08:53;14.75;;;5.13;;
75129;SDS011;63703;44.716;37.846;2022-11-18T05:11:19;15.82;;;4.18;;
75129;SDS011;63703;44.716;37.846;2022-11-18T05:14:03;14.57;;;4.82;;
75129;SDS011;63703;44.716;37.846;2022-11-18T05:16:29;13.23;;;3.60;;
75129;SDS011;63703;44.716;37.846;2022-11-18T05:18:55;9.63;;;3.33;;
75129;SDS011;63703;44.716;37.846;2022-11-18T05:21:21;11.05;;;3.03;;
75129;SDS011;63703;44.716;37.846;2022-11-18T05:23:47;12.00;;;5.28;;
75129;SDS011;63703;44.716;37.846;2022-11-18T05:26:13;13.60;;;4.30;;
75129;SDS011;63703;44.716;37.846;2022-11-18T05:28:39;15.30;;;5.28;;
75129;SDS011;63703;44.716;37.846;2022-11-18T05:31:12;9.98;;;3.75;;
75129;SDS011;63703;44.716;37.846;2022-11-18T05:33:39;12.18;;;3.80;;
75129;SDS011;63703;44.716;37.846;2022-11-18T05:36:06;11.82;;;2.97;;
75129;SDS011;63703;44.716;37.846;2022-11-18T05:38:35;11.20;;;4.65;;
75129;SDS011;63703;44.716;37.846;2022-11-18T05:41:01;8.23;;;3.78;;
75129;SDS011;63703;44.716;37.846;2022-11-18T05:43:27;17.13;;;3.80;;
75129;SDS011;63703;44.716;37.846;2022-11-18T05:45:54;7.53;;;2.20;;
75129;SDS011;63703;44.716;37.846;2022-11-18T05:48:20;12.85;;;3.38;;
75129;SDS011;63703;44.716;37.846;2022-11-18T05:50:47;10.25;;;4.63;;
75129;SDS011;63703;44.716;37.846;2022-11-18T05:53:14;14.90;;;3.67;;
75129;SDS011;63703;44.716;37.846;2022-11-18T05:58:14;13.20;;;2.65;;
75129;SDS011;63703;44.716;37.846;2022-11-18T06:00:39;9.48;;;2.72;;
75129;SDS011;63703;44.716;37.846;2022-11-18T06:03:07;8.07;;;2.28;;
75129;SDS011;63703;44.716;37.846;2022-11-18T06:05:41;8.30;;;2.97;;
75129;SDS011;63703;44.716;37.846;2022-11-18T06:08:08;9.32;;;3.78;;
75129;SDS011;63703;44.716;37.846;2022-11-18T06:10:36;10.77;;;3.08;;
75129;SDS011;63703;44.716;37.846;2022-11-18T06:13:05;8.18;;;3.10;;
75129;SDS011;63703;44.716;37.846;2022-11-18T06:15:39;10.07;;;2.85;;
75129;SDS011;63703;44.716;37.846;2022-11-18T06:18:19;12.10;;;3.33;;
75129;SDS011;63703;44.716;37.846;2022-11-18T06:20:48;9.43;;;2.47;;
75129;SDS011;63703;44.716;37.846;2022-11-18T06:23:17;10.07;;;2.40;;
75129;SDS011;63703;44.716;37.846;2022-11-18T06:25:43;10.23;;;3.63;;
75129;SDS011;63703;44.716;37.846;2022-11-18T06:28:10;12.25;;;2.22;;
75129;SDS011;63703;44.716;37.846;2022-11-18T06:30:37;11.50;;;1.92;;
75129;SDS011;63703;44.716;37.846;2022-11-18T06:33:03;7.07;;;2.17;;
75129;SDS011;63703;44.716;37.846;2022-11-18T06:35:29;7.40;;;1.77;;
75129;SDS011;63703;44.716;37.846;2022-11-18T06:37:55;6.70;;;2.58;;
75129;SDS011;63703;44.716;37.846;2022-11-18T06:40:21;7.25;;;1.20;;
75129;SDS011;63703;44.716;37.846;2022-11-18T06:42:47;9.35;;;3.38;;
75129;SDS011;63703;44.716;37.846;2022-11-18T06:45:31;6.35;;;2.22;;
75129;SDS011;63703;44.716;37.846;2022-11-18T06:47:57;10.05;;;2.50;;
75129;SDS011;63703;44.716;37.846;2022-11-18T06:50:26;6.55;;;1.45;;
75129;SDS011;63703;44.716;37.846;2022-11-18T06:52:53;6.65;;;1.95;;
75129;SDS011;63703;44.716;37.846;2022-11-18T06:55:19;9.25;;;2.30;;
75129;SDS011;63703;44.716;37.846;2022-11-18T06:57:45;9.30;;;2.72;;
75129;SDS011;63703;44.716;37.846;2022-11-18T07:00:11;5.65;;;1.60;;
75129;SDS011;63703;44.716;37.846;2022-11-18T07:02:37;8.00;;;2.72;;
75129;SDS011;63703;44.716;37.846;2022-11-18T07:05:06;7.65;;;2.50;;
75129;SDS011;63703;44.716;37.846;2022-11-18T07:07:35;9.35;;;3.67;;
75129;SDS011;63703;44.716;37.846;2022-11-18T07:10:01;6.40;;;1.77;;
75129;SDS011;63703;44.716;37.846;2022-11-18T07:12:27;7.22;;;1.77;;
75129;SDS011;63703;44.716;37.846;2022-11-18T07:14:53;8.32;;;2.03;;
75129;SDS011;63703;44.716;37.846;2022-11-18T07:17:19;7.90;;;2.92;;
75129;SDS011;63703;44.716;37.846;2022-11-18T07:19:44;13.90;;;3.72;;
75129;SDS011;63703;44.716;37.846;2022-11-18T07:22:10;9.13;;;3.22;;
75129;SDS011;63703;44.716;37.846;2022-11-18T07:24:36;10.95;;;1.60;;
75129;SDS011;63703;44.716;37.846;2022-11-18T07:27:02;12.52;;;2.15;;
75129;SDS011;63703;44.716;37.846;2022-11-18T07:29:28;8.40;;;2.00;;
75129;SDS011;63703;44.716;37.846;2022-11-18T07:31:54;10.38;;;2.92;;
75129;SDS011;63703;44.716;37.846;2022-11-18T07:34:20;11.90;;;2.83;;
75129;SDS011;63703;44.716;37.846;2022-11-18T07:36:49;7.13;;;2.10;;
75129;SDS011;63703;44.716;37.846;2022-11-18T07:39:14;8.07;;;2.63;;
75129;SDS011;63703;44.716;37.846;2022-11-18T07:41:40;11.52;;;2.63;;
75129;SDS011;63703;44.716;37.846;2022-11-18T07:44:06;6.72;;;1.48;;
75129;SDS011;63703;44.716;37.846;2022-11-18T07:46:35;10.20;;;2.58;;
75129;SDS011;63703;44.716;37.846;2022-11-18T07:49:03;12.13;;;3.03;;
75129;SDS011;63703;44.716;37.846;2022-11-18T07:51:31;8.68;;;2.70;;
75129;SDS011;63703;44.716;37.846;2022-11-18T07:53:59;7.53;;;1.95;;
75129;SDS011;63703;44.716;37.846;2022-11-18T07:56:25;8.13;;;2.47;;
75129;SDS011;63703;44.716;37.846;2022-11-18T07:58:54;10.32;;;3.35;;
75129;SDS011;63703;44.716;37.846;2022-11-18T08:01:24;6.13;;;1.73;;
75129;SDS011;63703;44.716;37.846;2022-11-18T08:03:55;18.63;;;4.13;;
75129;SDS011;63703;44.716;37.846;2022-11-18T08:06:22;8.07;;;1.42;;
75129;SDS011;63703;44.716;37.846;2022-11-18T08:08:48;7.10;;;1.73;;
75129;SDS011;63703;44.716;37.846;2022-11-18T08:11:17;10.30;;;2.38;;
75129;SDS011;63703;44.716;37.846;2022-11-18T08:13:44;6.47;;;1.95;;
75129;SDS011;63703;44.716;37.846;2022-11-18T08:16:13;6.40;;;2.08;;
75129;SDS011;63703;44.716;37.846;2022-11-18T08:18:41;9.35;;;2.92;;
75129;SDS011;63703;44.716;37.846;2022-11-18T08:21:08;7.65;;;1.73;;
75129;SDS011;63703;44.716;37.846;2022-11-18T08:23:34;7.20;;;2.17;;
75129;SDS011;63703;44.716;37.846;2022-11-18T08:26:07;10.52;;;2.75;;
75129;SDS011;63703;44.716;37.846;2022-11-18T08:28:40;7.82;;;2.95;;
75129;SDS011;63703;44.716;37.846;2022-11-18T08:31:20;13.55;;;2.05;;
75129;SDS011;63703;44.716;37.846;2022-11-18T08:33:52;10.27;;;2.08;;
75129;SDS011;63703;44.716;37.846;2022-11-18T08:36:20;10.35;;;2.47;;
75129;SDS011;63703;44.716;37.846;2022-11-18T08:38:47;9.57;;;1.95;;
75129;SDS011;63703;44.716;37.846;2022-11-18T08:41:14;6.28;;;2.25;;
75129;SDS011;63703;44.716;37.846;2022-11-18T08:43:42;7.90;;;1.92;;
75129;SDS011;63703;44.716;37.846;2022-11-18T08:46:08;7.22;;;1.92;;
75129;SDS011;63703;44.716;37.846;2022-11-18T08:48:34;6.85;;;1.75;;
75129;SDS011;63703;44.716;37.846;2022-11-18T08:51:01;5.50;;;1.77;;
75129;SDS011;63703;44.716;37.846;2022-11-18T08:53:27;10.52;;;1.95;;
75129;SDS011;63703;44.716;37.846;2022-11-18T08:55:56;13.80;;;2.95;;
75129;SDS011;63703;44.716;37.846;2022-11-18T08:58:23;10.88;;;2.33;;
75129;SDS011;63703;44.716;37.846;2022-11-18T09:00:50;7.35;;;2.17;;
75129;SDS011;63703;44.716;37.846;2022-11-18T09:03:16;9.77;;;2.03;;
75129;SDS011;63703;44.716;37.846;2022-11-18T09:05:42;13.05;;;1.67;;
75129;SDS011;63703;44.716;37.846;2022-11-18T09:08:08;9.45;;;1.95;;
75129;SDS011;63703;44.716;37.846;2022-11-18T09:10:35;8.88;;;1.77;;
75129;SDS011;63703;44.716;37.846;2022-11-18T09:13:01;12.23;;;2.25;;
75129;SDS011;63703;44.716;37.846;2022-11-18T09:15:27;6.15;;;1.92;;
75129;SDS011;63703;44.716;37.846;2022-11-18T09:17:55;7.82;;;1.92;;
75129;SDS011;63703;44.716;37.846;2022-11-18T09:20:21;8.77;;;1.88;;
75129;SDS011;63703;44.716;37.846;2022-11-18T09:22:47;8.70;;;1.60;;
75129;SDS011;63703;44.716;37.846;2022-11-18T09:25:13;8.27;;;2.55;;
75129;SDS011;63703;44.716;37.846;2022-11-18T09:27:39;11.90;;;2.30;;
75129;SDS011;63703;44.716;37.846;2022-11-18T09:30:05;6.25;;;1.60;;
75129;SDS011;63703;44.716;37.846;2022-11-18T09:32:32;6.20;;;1.90;;
75129;SDS011;63703;44.716;37.846;2022-11-18T09:34:58;7.20;;;1.52;;
75129;SDS011;63703;44.716;37.846;2022-11-18T09:37:24;13.82;;;2.70;;
75129;SDS011;63703;44.716;37.846;2022-11-18T09:39:50;6.75;;;1.27;;
75129;SDS011;63703;44.716;37.846;2022-11-18T09:45:38;6.50;;;1.88;;
75129;SDS011;63703;44.716;37.846;2022-11-18T09:48:15;8.77;;;1.45;;
75129;SDS011;63703;44.716;37.846;2022-11-18T09:50:43;8.10;;;1.85;;
75129;SDS011;63703;44.716;37.846;2022-11-18T09:55:50;8.77;;;1.88;;
75129;SDS011;63703;44.716;37.846;2022-11-18T09:58:17;11.43;;;3.63;;
75129;SDS011;63703;44.716;37.846;2022-11-18T10:00:52;17.83;;;5.65;;
75129;SDS011;63703;44.716;37.846;2022-11-18T10:03:31;10.95;;;3.58;;
75129;SDS011;63703;44.716;37.846;2022-11-18T10:08:54;8.20;;;2.50;;
75129;SDS011;63703;44.716;37.846;2022-11-18T10:19:55;20.08;;;6.40;;
75129;SDS011;63703;44.716;37.846;2022-11-18T10:22:26;7.90;;;1.42;;
75129;SDS011;63703;44.716;37.846;2022-11-18T10:24:56;8.27;;;1.20;;
75129;SDS011;63703;44.716;37.846;2022-11-18T10:27:36;6.55;;;1.08;;
75129;SDS011;63703;44.716;37.846;2022-11-18T10:30:10;10.82;;;2.03;;
75129;SDS011;63703;44.716;37.846;2022-11-18T10:32:51;8.48;;;1.65;;
75129;SDS011;63703;44.716;37.846;2022-11-18T10:35:31;13.55;;;4.85;;
75129;SDS011;63703;44.716;37.846;2022-11-18T10:38:18;6.75;;;1.42;;
75129;SDS011;63703;44.716;37.846;2022-11-18T10:51:33;6.53;;;1.95;;
75129;SDS011;63703;44.716;37.846;2022-11-18T10:57:20;9.65;;;1.67;;
75129;SDS011;63703;44.716;37.846;2022-11-18T10:59:54;4.25;;;1.33;;
75129;SDS011;63703;44.716;37.846;2022-11-18T11:04:55;5.35;;;2.33;;
75129;SDS011;63703;44.716;37.846;2022-11-18T11:07:24;9.55;;;1.38;;
75129;SDS011;63703;44.716;37.846;2022-11-18T11:09:59;6.95;;;2.17;;
75129;SDS011;63703;44.716;37.846;2022-11-18T11:12:32;5.38;;;1.10;;
75129;SDS011;63703;44.716;37.846;2022-11-18T11:15:02;5.47;;;2.10;;
75129;SDS011;63703;44.716;37.846;2022-11-18T11:17:38;8.82;;;1.45;;
75129;SDS011;63703;44.716;37.846;2022-11-18T11:22:42;6.70;;;2.22;;
75129;SDS011;63703;44.716;37.846;2022-11-18T11:25:13;6.22;;;1.83;;
75129;SDS011;63703;44.716;37.846;2022-11-18T11:27:47;5.65;;;1.38;;
75129;SDS011;63703;44.716;37.846;2022-11-18T11:30:22;7.38;;;1.90;;
75129;SDS011;63703;44.716;37.846;2022-11-18T11:38:43;10.05;;;3.40;;
75129;SDS011;63703;44.716;37.846;2022-11-18T11:45:16;9.38;;;1.88;;
75129;SDS011;63703;44.716;37.846;2022-11-18T11:58:58;5.72;;;1.80;;
75129;SDS011;63703;44.716;37.846;2022-11-18T12:07:19;10.32;;;2.30;;
75129;SDS011;63703;44.716;37.846;2022-11-18T12:13:25;5.97;;;2.40;;
75129;SDS011;63703;44.716;37.846;2022-11-18T12:15:47;5.18;;;1.98;;
75129;SDS011;63703;44.716;37.846;2022-11-18T12:26:45;7.47;;;2.45;;
75129;SDS011;63703;44.716;37.846;2022-11-18T12:31:47;12.35;;;4.07;;
75129;SDS011;63703;44.716;37.846;2022-11-18T12:36:50;8.65;;;2.42;;
75129;SDS011;63703;44.716;37.846;2022-11-18T12:41:53;12.80;;;2.58;;
75129;SDS011;63703;44.716;37.846;2022-11-18T12:44:40;10.25;;;3.33;;
75129;SDS011;63703;44.716;37.846;2022-11-18T12:47:10;11.18;;;2.72;;
75129;SDS011;63703;44.716;37.846;2022-11-18T12:54:54;9.88;;;2.38;;
75129;SDS011;63703;44.716;37.846;2022-11-18T12:57:26;12.57;;;3.83;;
75129;SDS011;63703;44.716;37.846;2022-11-18T12:59:55;8.02;;;2.30;;
75129;SDS011;63703;44.716;37.846;2022-11-18T13:02:25;7.47;;;3.25;;
75129;SDS011;63703;44.716;37.846;2022-11-18T13:07:32;9.68;;;3.65;;
75129;SDS011;63703;44.716;37.846;2022-11-18T13:10:29;6.68;;;2.85;;
75129;SDS011;63703;44.716;37.846;2022-11-18T13:12:58;11.13;;;3.67;;
75129;SDS011;63703;44.716;37.846;2022-11-18T13:15:24;10.10;;;4.07;;
75129;SDS011;63703;44.716;37.846;2022-11-18T13:20:40;10.20;;;3.45;;
75129;SDS011;63703;44.716;37.846;2022-11-18T13:25:52;7.90;;;3.28;;
75129;SDS011;63703;44.716;37.846;2022-11-18T13:33:47;8.50;;;3.13;;
75129;SDS011;63703;44.716;37.846;2022-11-18T13:38:54;12.63;;;4.88;;
75129;SDS011;63703;44.716;37.846;2022-11-18T13:41:20;9.60;;;4.22;;
75129;SDS011;63703;44.716;37.846;2022-11-18T13:43:49;14.35;;;4.55;;
75129;SDS011;63703;44.716;37.846;2022-11-18T13:46:17;13.30;;;4.40;;
75129;SDS011;63703;44.716;37.846;2022-11-18T13:48:47;13.45;;;5.22;;
75129;SDS011;63703;44.716;37.846;2022-11-18T13:51:21;11.27;;;4.68;;
75129;SDS011;63703;44.716;37.846;2022-11-18T13:53:47;9.77;;;4.13;;
75129;SDS011;63703;44.716;37.846;2022-11-18T13:58:43;10.15;;;2.97;;
75129;SDS011;63703;44.716;37.846;2022-11-18T14:01:19;7.72;;;3.20;;
75129;SDS011;63703;44.716;37.846;2022-11-18T14:03:57;13.95;;;4.25;;
75129;SDS011;63703;44.716;37.846;2022-11-18T14:06:31;10.10;;;4.68;;
75129;SDS011;63703;44.716;37.846;2022-11-18T14:11:40;11.02;;;3.63;;
75129;SDS011;63703;44.716;37.846;2022-11-18T14:14:07;10.63;;;3.75;;
75129;SDS011;63703;44.716;37.846;2022-11-18T14:16:38;8.95;;;4.38;;
75129;SDS011;63703;44.716;37.846;2022-11-18T14:19:05;8.02;;;4.47;;
75129;SDS011;63703;44.716;37.846;2022-11-18T14:21:50;11.20;;;4.68;;
75129;SDS011;63703;44.716;37.846;2022-11-18T14:24:16;7.07;;;3.45;;
75129;SDS011;63703;44.716;37.846;2022-11-18T14:26:52;12.13;;;3.90;;
75129;SDS011;63703;44.716;37.846;2022-11-18T14:29:18;10.90;;;3.85;;
75129;SDS011;63703;44.716;37.846;2022-11-18T14:34:37;9.60;;;4.88;;
75129;SDS011;63703;44.716;37.846;2022-11-18T14:37:12;10.82;;;3.40;;
75129;SDS011;63703;44.716;37.846;2022-11-18T14:39:39;11.10;;;4.15;;
75129;SDS011;63703;44.716;37.846;2022-11-18T14:42:08;12.10;;;3.55;;
75129;SDS011;63703;44.716;37.846;2022-11-18T14:44:36;9.88;;;4.25;;
75129;SDS011;63703;44.716;37.846;2022-11-18T14:47:04;8.38;;;3.83;;
75129;SDS011;63703;44.716;37.846;2022-11-18T14:49:38;11.60;;;3.25;;
75129;SDS011;63703;44.716;37.846;2022-11-18T14:52:04;13.30;;;4.80;;
75129;SDS011;63703;44.716;37.846;2022-11-18T14:54:30;7.50;;;3.47;;
75129;SDS011;63703;44.716;37.846;2022-11-18T14:56:57;7.18;;;3.63;;
75129;SDS011;63703;44.716;37.846;2022-11-18T14:59:26;12.20;;;4.07;;
75129;SDS011;63703;44.716;37.846;2022-11-18T15:01:53;10.73;;;4.28;;
75129;SDS011;63703;44.716;37.846;2022-11-18T15:04:20;9.70;;;3.92;;
75129;SDS011;63703;44.716;37.846;2022-11-18T15:06:47;14.57;;;4.70;;
75129;SDS011;63703;44.716;37.846;2022-11-18T15:09:12;10.57;;;5.05;;
75129;SDS011;63703;44.716;37.846;2022-11-18T15:11:38;12.98;;;5.43;;
75129;SDS011;63703;44.716;37.846;2022-11-18T15:14:04;13.48;;;5.32;;
75129;SDS011;63703;44.716;37.846;2022-11-18T15:16:31;20.25;;;6.38;;
75129;SDS011;63703;44.716;37.846;2022-11-18T15:19:00;14.68;;;6.47;;
75129;SDS011;63703;44.716;37.846;2022-11-18T15:21:27;12.77;;;5.10;;
75129;SDS011;63703;44.716;37.846;2022-11-18T15:23:53;16.92;;;5.72;;
75129;SDS011;63703;44.716;37.846;2022-11-18T15:29:00;16.98;;;6.03;;
75129;SDS011;63703;44.716;37.846;2022-11-18T15:31:26;16.95;;;5.60;;
75129;SDS011;63703;44.716;37.846;2022-11-18T15:33:52;14.32;;;6.13;;
75129;SDS011;63703;44.716;37.846;2022-11-18T15:36:19;14.75;;;6.22;;
75129;SDS011;63703;44.716;37.846;2022-11-18T15:38:46;20.05;;;6.35;;
75129;SDS011;63703;44.716;37.846;2022-11-18T15:43:43;16.88;;;6.40;;
75129;SDS011;63703;44.716;37.846;2022-11-18T15:46:09;18.27;;;6.65;;
75129;SDS011;63703;44.716;37.846;2022-11-18T15:48:35;18.88;;;6.53;;
75129;SDS011;63703;44.716;37.846;2022-11-18T15:51:01;15.40;;;6.80;;
75129;SDS011;63703;44.716;37.846;2022-11-18T15:53:27;17.92;;;7.43;;
75129;SDS011;63703;44.716;37.846;2022-11-18T15:56:12;18.63;;;7.38;;
75129;SDS011;63703;44.716;37.846;2022-11-18T15:59:04;17.73;;;6.55;;
75129;SDS011;63703;44.716;37.846;2022-11-18T16:01:31;16.40;;;5.57;;
75129;SDS011;63703;44.716;37.846;2022-11-18T16:03:59;12.95;;;7.32;;
75129;SDS011;63703;44.716;37.846;2022-11-18T16:06:25;15.20;;;7.82;;
75129;SDS011;63703;44.716;37.846;2022-11-18T16:08:51;16.67;;;6.32;;
75129;SDS011;63703;44.716;37.846;2022-11-18T16:11:18;18.70;;;8.13;;
75129;SDS011;63703;44.716;37.846;2022-11-18T16:14:03;22.70;;;9.63;;
75129;SDS011;63703;44.716;37.846;2022-11-18T16:16:30;16.95;;;9.60;;
75129;SDS011;63703;44.716;37.846;2022-11-18T16:18:57;14.70;;;6.43;;
75129;SDS011;63703;44.716;37.846;2022-11-18T16:21:24;19.45;;;7.70;;
75129;SDS011;63703;44.716;37.846;2022-11-18T16:23:54;17.05;;;7.35;;
75129;SDS011;63703;44.716;37.846;2022-11-18T16:26:22;17.88;;;8.02;;
75129;SDS011;63703;44.716;37.846;2022-11-18T16:28:49;19.35;;;6.28;;
75129;SDS011;63703;44.716;37.846;2022-11-18T16:31:15;13.50;;;7.88;;
75129;SDS011;63703;44.716;37.846;2022-11-18T16:34:03;15.07;;;7.72;;
75129;SDS011;63703;44.716;37.846;2022-11-18T16:36:30;16.00;;;8.18;;
75129;SDS011;63703;44.716;37.846;2022-11-18T16:38:57;18.23;;;6.70;;
75129;SDS011;63703;44.716;37.846;2022-11-18T16:41:27;16.38;;;7.15;;
75129;SDS011;63703;44.716;37.846;2022-11-18T16:43:55;23.98;;;9.02;;
75129;SDS011;63703;44.716;37.846;2022-11-18T16:46:23;30.10;;;8.75;;
75129;SDS011;63703;44.716;37.846;2022-11-18T16:48:49;23.92;;;8.15;;
75129;SDS011;63703;44.716;37.846;2022-11-18T16:53:58;18.27;;;6.97;;
75129;SDS011;63703;44.716;37.846;2022-11-18T16:56:30;11.60;;;6.47;;
75129;SDS011;63703;44.716;37.846;2022-11-18T16:58:58;11.15;;;6.72;;
75129;SDS011;63703;44.716;37.846;2022-11-18T17:01:26;15.40;;;6.90;;
75129;SDS011;63703;44.716;37.846;2022-11-18T17:03:52;15.77;;;7.00;;
75129;SDS011;63703;44.716;37.846;2022-11-18T17:06:19;10.70;;;5.15;;
75129;SDS011;63703;44.716;37.846;2022-11-18T17:08:46;15.02;;;6.38;;
75129;SDS011;63703;44.716;37.846;2022-11-18T17:11:12;14.85;;;6.53;;
75129;SDS011;63703;44.716;37.846;2022-11-18T17:13:39;15.00;;;6.25;;
75129;SDS011;63703;44.716;37.846;2022-11-18T17:16:09;11.32;;;5.22;;
75129;SDS011;63703;44.716;37.846;2022-11-18T17:18:36;10.60;;;5.00;;
75129;SDS011;63703;44.716;37.846;2022-11-18T17:21:09;11.38;;;4.45;;
75129;SDS011;63703;44.716;37.846;2022-11-18T17:23:42;15.13;;;4.60;;
75129;SDS011;63703;44.716;37.846;2022-11-18T17:26:09;14.48;;;4.78;;
75129;SDS011;63703;44.716;37.846;2022-11-18T17:28:36;10.68;;;4.15;;